Time;durP1;ratioP1;P1;durP2;ratioP2;P2;SDS_P1;SDS_P2;PMS_P1;PMS_P2;Temp;Humidity;BMP_temperature;BMP_pressure;BME280_temperature;BME280_humidity;BME280_pressure;Samples;Min_cycle;Max_cycle;Signal;HPM_P1;HPM_P2
2024/01/14 00:00:41;;;;;;;3.53;2.90;;;22.00;47.90;;;;;;4949260;28;92620;-57
2024/01/14 00:03:07;;;;;;;2.97;2.47;;;22.00;48.00;;;;;;4951390;28;92707;-57
2024/01/14 00:05:33;;;;;;;2.92;2.55;;;22.00;48.10;;;;;;4955092;28;92808;-58
2024/01/14 00:07:59;;;;;;;4.68;3.08;;;21.90;48.10;;;;;;4947760;28;92715;-58
2024/01/14 00:10:26;;;;;;;2.90;2.60;;;22.00;48.20;;;;;;4965013;28;92443;-58
2024/01/14 00:12:52;;;;;;;3.05;2.58;;;21.90;48.00;;;;;;4964794;28;92865;-57
2024/01/14 00:15:19;;;;;;;2.92;2.53;;;21.90;48.60;;;;;;4964331;28;92722;-57
2024/01/14 00:17:46;;;;;;;3.20;2.90;;;21.90;48.20;;;;;;4942295;28;94815;-58
2024/01/14 00:20:11;;;;;;;3.42;3.13;;;21.80;48.10;;;;;;4948497;28;94577;-58
2024/01/14 00:22:37;;;;;;;2.83;2.53;;;21.80;48.00;;;;;;4948954;28;92741;-58
2024/01/14 00:25:03;;;;;;;3.13;2.65;;;21.80;48.10;;;;;;4948648;28;92398;-57
2024/01/14 00:27:29;;;;;;;3.28;2.90;;;21.80;48.10;;;;;;4948797;28;93917;-58
2024/01/14 00:29:57;;;;;;;3.28;2.92;;;21.80;48.10;;;;;;4952110;28;95433;-58
2024/01/14 00:32:23;;;;;;;3.17;2.85;;;21.70;48.00;;;;;;4948877;28;92796;-58
2024/01/14 00:34:49;;;;;;;3.33;3.03;;;21.70;48.00;;;;;;4948344;28;91234;-58
2024/01/14 00:37:14;;;;;;;3.05;2.67;;;21.70;48.10;;;;;;4945844;28;92673;-59
2024/01/14 00:39:40;;;;;;;3.80;2.75;;;21.60;48.10;;;;;;4948546;28;93845;-58
2024/01/14 00:42:06;;;;;;;3.22;2.92;;;21.60;48.10;;;;;;4946968;28;96902;-58
2024/01/14 00:44:32;;;;;;;3.13;2.80;;;21.60;48.10;;;;;;4950533;28;92431;-58
2024/01/14 00:46:58;;;;;;;3.65;2.70;;;21.60;48.20;;;;;;4951276;28;93762;-58
2024/01/14 00:49:23;;;;;;;3.70;2.97;;;21.60;48.30;;;;;;4947522;28;92894;-58
2024/01/14 00:51:49;;;;;;;4.05;2.97;;;21.50;48.20;;;;;;4949108;28;92810;-58
2024/01/14 00:54:15;;;;;;;3.78;3.00;;;21.50;48.20;;;;;;4948856;28;92651;-58
2024/01/14 00:56:41;;;;;;;3.53;2.75;;;21.50;48.10;;;;;;4949691;28;94357;-58
2024/01/14 00:59:07;;;;;;;4.70;3.10;;;21.50;48.20;;;;;;4964050;28;93002;-58
2024/01/14 01:01:32;;;;;;;4.13;3.58;;;21.50;48.10;;;;;;4948432;28;92644;-57
2024/01/14 01:03:59;;;;;;;3.40;3.10;;;21.40;48.20;;;;;;4949736;28;92270;-57
2024/01/14 01:06:27;;;;;;;4.75;3.33;;;21.40;48.10;;;;;;4963942;28;96545;-58
2024/01/14 01:08:52;;;;;;;3.60;3.00;;;21.40;48.30;;;;;;4946772;28;92873;-57
2024/01/14 01:11:18;;;;;;;3.25;2.75;;;21.40;48.30;;;;;;4964649;28;93370;-57
2024/01/14 01:13:44;;;;;;;3.67;3.03;;;21.30;48.30;;;;;;4948394;28;92363;-58
2024/01/14 01:16:11;;;;;;;3.42;3.13;;;21.30;48.30;;;;;;4946291;28;94685;-57
2024/01/14 01:18:37;;;;;;;3.53;2.97;;;21.30;48.20;;;;;;4961318;28;92966;-58
2024/01/14 01:21:02;;;;;;;3.72;3.35;;;21.30;48.20;;;;;;4949302;28;92598;-57
2024/01/14 01:26:51;;;;;;;3.63;2.67;;;21.30;48.20;;;;;;4948894;28;92364;-59
2024/01/14 01:29:17;;;;;;;3.50;3.10;;;21.20;48.20;;;;;;4952176;28;94034;-58
2024/01/14 01:31:42;;;;;;;3.20;2.80;;;21.20;48.30;;;;;;4953158;28;94385;-57
2024/01/14 01:34:09;;;;;;;3.72;3.40;;;21.20;48.20;;;;;;4952064;28;92023;-57
2024/01/14 01:36:35;;;;;;;3.13;2.80;;;21.20;48.20;;;;;;4949318;28;93137;-57
2024/01/14 01:39:00;;;;;;;3.30;2.85;;;21.20;48.30;;;;;;4947753;28;92614;-59
2024/01/14 01:41:26;;;;;;;5.65;3.15;;;21.20;48.40;;;;;;4949181;28;92574;-58
2024/01/14 01:43:52;;;;;;;4.55;2.90;;;21.20;48.40;;;;;;4961529;28;92067;-58
2024/01/14 01:46:19;;;;;;;3.42;3.00;;;21.10;48.40;;;;;;4946155;28;93788;-56
2024/01/14 01:48:46;;;;;;;3.78;3.10;;;21.10;48.30;;;;;;4945148;28;93262;-57
2024/01/14 01:51:14;;;;;;;3.08;2.80;;;21.10;48.40;;;;;;4946299;28;92845;-58
2024/01/14 01:53:40;;;;;;;3.47;3.17;;;21.10;48.30;;;;;;4947103;28;93441;-58
2024/01/14 01:56:06;;;;;;;3.10;2.78;;;21.00;48.30;;;;;;4945955;28;95409;-57
2024/01/14 01:58:32;;;;;;;3.40;3.10;;;21.00;48.20;;;;;;4949672;28;93616;-58
2024/01/14 02:00:58;;;;;;;4.78;3.65;;;21.00;48.20;;;;;;4945930;28;92606;-57
2024/01/14 02:03:25;;;;;;;3.53;3.15;;;21.00;48.30;;;;;;4948558;28;93431;-58
2024/01/14 02:05:54;;;;;;;3.58;3.05;;;21.00;48.30;;;;;;4951500;28;92015;-58
2024/01/14 02:08:20;;;;;;;3.95;3.55;;;21.00;48.40;;;;;;4954291;28;93426;-57
2024/01/14 02:13:12;;;;;;;3.67;3.20;;;21.00;48.40;;;;;;4947059;28;91444;-58
2024/01/14 02:15:38;;;;;;;3.53;3.13;;;20.90;48.20;;;;;;4947061;28;92619;-58
2024/01/14 02:18:04;;;;;;;3.03;2.72;;;20.90;48.30;;;;;;4961272;28;93235;-58
2024/01/14 02:20:30;;;;;;;3.17;2.88;;;20.90;48.40;;;;;;4947812;28;93450;-58
2024/01/14 02:22:58;;;;;;;3.83;2.95;;;20.90;48.20;;;;;;4960841;28;92119;-58
2024/01/14 02:25:24;;;;;;;4.03;3.63;;;20.90;48.40;;;;;;4950082;28;93364;-58
2024/01/14 02:27:50;;;;;;;3.33;3.03;;;20.80;48.90;;;;;;4950060;28;93697;-58
2024/01/14 02:30:17;;;;;;;3.20;2.90;;;20.80;48.20;;;;;;4946454;28;92463;-57
2024/01/14 02:32:43;;;;;;;3.72;3.35;;;20.80;48.30;;;;;;4945823;28;92044;-58
2024/01/14 02:35:08;;;;;;;3.67;3.00;;;20.80;48.30;;;;;;4953953;28;93126;-57
2024/01/14 02:37:38;;;;;;;4.32;2.97;;;20.80;48.20;;;;;;4956023;28;92753;-59
2024/01/14 02:40:04;;;;;;;4.45;3.20;;;20.80;48.20;;;;;;4950752;28;92381;-59
2024/01/14 02:42:30;;;;;;;3.25;2.80;;;20.80;48.20;;;;;;4945313;28;92338;-57
2024/01/14 02:44:56;;;;;;;3.38;2.90;;;20.80;48.20;;;;;;4945550;28;94114;-56
2024/01/14 02:47:21;;;;;;;4.72;3.58;;;20.70;48.30;;;;;;4948115;28;93830;-57
2024/01/14 02:49:48;;;;;;;3.50;3.17;;;20.70;48.20;;;;;;4940757;28;92698;-58
2024/01/14 02:52:15;;;;;;;4.32;3.30;;;20.70;48.20;;;;;;4944740;28;92542;-56
2024/01/14 02:54:41;;;;;;;3.38;2.80;;;20.70;48.40;;;;;;4962618;28;94644;-58
2024/01/14 02:57:09;;;;;;;4.30;3.47;;;20.70;48.20;;;;;;4961122;28;94905;-57
2024/01/14 02:59:35;;;;;;;4.03;3.38;;;20.70;48.30;;;;;;4930060;28;92553;-57
2024/01/14 03:02:01;;;;;;;4.38;3.72;;;20.70;48.10;;;;;;4947755;28;92301;-57
2024/01/14 03:04:27;;;;;;;3.42;3.13;;;20.60;48.30;;;;;;4946322;28;94836;-58
2024/01/14 03:06:53;;;;;;;4.10;3.42;;;20.60;48.40;;;;;;4948675;28;92805;-59
2024/01/14 03:09:18;;;;;;;3.75;3.00;;;20.60;48.30;;;;;;4931219;28;93333;-58
2024/01/14 03:11:44;;;;;;;2.95;2.65;;;20.60;48.20;;;;;;4945778;28;92916;-57
2024/01/14 03:14:10;;;;;;;4.07;3.17;;;20.60;48.40;;;;;;4947802;28;93801;-57
2024/01/14 03:16:35;;;;;;;3.13;2.75;;;20.60;48.50;;;;;;4961524;28;96350;-57
2024/01/14 03:19:01;;;;;;;3.22;2.88;;;20.60;48.20;;;;;;4949106;28;93105;-57
2024/01/14 03:21:27;;;;;;;3.47;2.85;;;20.60;48.30;;;;;;4951686;28;92286;-58
2024/01/14 03:23:53;;;;;;;4.90;3.38;;;20.60;48.30;;;;;;4947562;28;93040;-58
2024/01/14 03:26:20;;;;;;;3.60;3.08;;;20.50;48.30;;;;;;4966786;28;95561;-58
2024/01/14 03:28:45;;;;;;;3.63;3.13;;;20.50;48.20;;;;;;4918322;28;92612;-58
2024/01/14 03:31:17;;;;;;;3.75;3.15;;;20.50;48.30;;;;;;4943753;28;93431;-58
2024/01/14 03:34:26;;;;;;;3.80;3.40;;;20.50;48.50;;;;;;4951144;28;95081;-58
2024/01/14 03:36:52;;;;;;;3.60;3.00;;;20.50;48.40;;;;;;4949322;28;94527;-55
2024/01/14 03:39:18;;;;;;;3.63;3.20;;;20.50;48.50;;;;;;4949336;28;93066;-58
2024/01/14 03:41:44;;;;;;;3.75;3.30;;;20.50;48.40;;;;;;4946403;28;92249;-57
2024/01/14 03:44:10;;;;;;;4.38;3.17;;;20.50;48.30;;;;;;4946150;28;94706;-59
2024/01/14 03:46:36;;;;;;;4.80;3.55;;;20.50;48.20;;;;;;4959332;28;92615;-58
2024/01/14 03:49:02;;;;;;;4.78;3.33;;;20.50;48.30;;;;;;4947418;28;92792;-58
2024/01/14 03:51:29;;;;;;;4.00;3.28;;;20.40;48.30;;;;;;4947666;28;91723;-57
2024/01/14 03:53:55;;;;;;;3.60;2.88;;;20.40;48.30;;;;;;4945853;28;95539;-58
2024/01/14 03:56:22;;;;;;;4.13;3.72;;;20.40;48.40;;;;;;4948377;28;93946;-58
2024/01/14 03:58:48;;;;;;;4.53;3.55;;;20.40;48.30;;;;;;4945465;28;93906;-57
2024/01/14 04:01:17;;;;;;;3.35;3.05;;;20.40;48.40;;;;;;4956867;28;92507;-58
2024/01/14 04:03:43;;;;;;;2.90;2.60;;;20.40;48.40;;;;;;4944502;28;95720;-58
2024/01/14 04:06:09;;;;;;;3.88;3.40;;;20.40;48.40;;;;;;4960401;28;93198;-57
2024/01/14 04:08:35;;;;;;;3.22;2.85;;;20.40;48.30;;;;;;4943684;28;92903;-57
2024/01/14 04:11:01;;;;;;;4.65;3.97;;;20.30;48.40;;;;;;4945908;28;92613;-59
2024/01/14 04:13:26;;;;;;;3.63;3.08;;;20.40;48.30;;;;;;4959863;28;95821;-57
2024/01/14 04:15:55;;;;;;;3.78;3.20;;;20.30;48.50;;;;;;4945675;28;92849;-57
2024/01/14 04:18:21;;;;;;;3.50;2.78;;;20.30;48.30;;;;;;4946824;28;93416;-58
2024/01/14 04:20:47;;;;;;;4.15;3.22;;;20.30;48.30;;;;;;4946375;28;92240;-56
2024/01/14 04:23:13;;;;;;;3.63;3.33;;;20.30;48.40;;;;;;4955623;28;94175;-58
2024/01/14 04:25:39;;;;;;;3.42;3.13;;;20.30;49.10;;;;;;4946888;28;92872;-56
2024/01/14 04:28:05;;;;;;;3.53;3.22;;;20.30;48.10;;;;;;4943966;28;92729;-58
2024/01/14 04:30:31;;;;;;;3.50;3.20;;;20.20;48.40;;;;;;4947551;28;92265;-57
2024/01/14 04:32:58;;;;;;;3.95;2.92;;;20.30;48.30;;;;;;4948782;28;93607;-57
2024/01/14 04:35:25;;;;;;;4.55;3.60;;;20.30;48.30;;;;;;4946054;28;94106;-58
2024/01/14 04:37:51;;;;;;;3.58;3.28;;;20.20;48.20;;;;;;4965163;28;93552;-59
2024/01/14 04:40:18;;;;;;;3.28;2.95;;;20.20;48.30;;;;;;4947595;28;92402;-58
2024/01/14 04:42:43;;;;;;;3.63;3.00;;;20.20;48.40;;;;;;4963290;28;93027;-58
2024/01/14 04:45:09;;;;;;;4.28;3.50;;;20.20;48.30;;;;;;4947981;28;92725;-58
2024/01/14 04:47:35;;;;;;;3.45;3.15;;;20.20;48.20;;;;;;4948703;28;93872;-58
2024/01/14 04:50:01;;;;;;;3.22;2.90;;;20.20;48.30;;;;;;4949910;28;92834;-58
2024/01/14 04:52:27;;;;;;;4.07;3.47;;;20.20;48.30;;;;;;4946023;28;94805;-57
2024/01/14 04:54:52;;;;;;;3.40;2.97;;;20.20;48.40;;;;;;4948870;28;92961;-58
2024/01/14 04:57:19;;;;;;;4.20;3.20;;;20.10;48.40;;;;;;4951020;28;92101;-58
2024/01/14 04:59:46;;;;;;;3.80;3.30;;;20.10;48.30;;;;;;4955143;28;92685;-57
2024/01/14 05:02:11;;;;;;;3.55;3.25;;;20.10;48.30;;;;;;4948097;28;93923;-58
2024/01/14 05:04:38;;;;;;;3.10;2.80;;;20.10;48.20;;;;;;4966378;28;96224;-58
2024/01/14 05:07:04;;;;;;;3.85;3.38;;;20.10;48.30;;;;;;4947146;28;92808;-57
2024/01/14 05:09:31;;;;;;;4.20;3.53;;;20.10;48.30;;;;;;4963524;28;92663;-58
2024/01/14 05:11:58;;;;;;;3.75;3.35;;;20.10;48.20;;;;;;4946060;28;97286;-56
2024/01/14 05:14:23;;;;;;;3.53;3.22;;;20.10;48.30;;;;;;4963436;28;94157;-58
2024/01/14 05:16:49;;;;;;;3.90;3.17;;;20.10;48.30;;;;;;4947424;28;92767;-59
2024/01/14 05:19:15;;;;;;;3.63;3.03;;;20.10;48.40;;;;;;4948343;28;92435;-59
2024/01/14 05:21:42;;;;;;;4.00;3.60;;;20.10;48.30;;;;;;4948201;28;94953;-58
2024/01/14 05:24:07;;;;;;;3.95;3.42;;;20.10;48.30;;;;;;4949620;28;93117;-58
2024/01/14 05:26:37;;;;;;;3.40;3.10;;;20.10;48.20;;;;;;4948287;28;92543;-57
2024/01/14 05:29:03;;;;;;;4.88;3.38;;;20.00;48.20;;;;;;4954782;28;92661;-57
2024/01/14 05:31:30;;;;;;;3.53;3.22;;;20.00;48.30;;;;;;4947359;28;92606;-57
2024/01/14 05:33:56;;;;;;;3.53;3.15;;;20.00;48.30;;;;;;4928429;28;93926;-56
2024/01/14 05:36:22;;;;;;;5.10;3.38;;;20.00;48.40;;;;;;4962080;28;93569;-58
2024/01/14 05:38:49;;;;;;;3.60;3.20;;;20.00;48.20;;;;;;4946673;28;92436;-59
2024/01/14 05:41:15;;;;;;;3.92;3.15;;;20.00;48.30;;;;;;4963421;28;94078;-56
2024/01/14 05:43:41;;;;;;;3.70;3.35;;;20.00;48.30;;;;;;4963157;28;93322;-58
2024/01/14 05:46:07;;;;;;;3.97;3.60;;;20.00;48.20;;;;;;4962185;28;92955;-58
2024/01/14 05:48:33;;;;;;;4.72;3.55;;;20.00;48.20;;;;;;4960973;28;92625;-57
2024/01/14 05:50:58;;;;;;;4.88;3.45;;;20.00;48.20;;;;;;4947329;28;93223;-57
2024/01/14 05:53:24;;;;;;;3.35;3.05;;;20.00;48.40;;;;;;4949605;28;92225;-58
2024/01/14 05:55:49;;;;;;;3.50;3.20;;;19.90;48.30;;;;;;4948531;28;92429;-57
2024/01/14 05:58:15;;;;;;;3.53;2.90;;;19.90;48.20;;;;;;4947461;28;92641;-58
2024/01/14 06:00:41;;;;;;;3.47;2.83;;;19.90;48.20;;;;;;4950695;28;94073;-58
2024/01/14 06:03:07;;;;;;;3.75;3.38;;;19.90;48.20;;;;;;4948776;28;95060;-57
2024/01/14 06:05:33;;;;;;;3.45;3.08;;;19.90;48.20;;;;;;4949740;28;92618;-56
2024/01/14 06:07:58;;;;;;;3.53;3.22;;;19.90;48.20;;;;;;4962249;28;92079;-56
2024/01/14 06:10:25;;;;;;;3.75;3.08;;;19.90;48.20;;;;;;4947432;28;93175;-56
2024/01/14 06:12:50;;;;;;;3.35;3.03;;;19.90;48.20;;;;;;4946418;28;92890;-58
2024/01/14 06:15:17;;;;;;;3.17;2.88;;;19.90;48.30;;;;;;4945260;28;92141;-58
2024/01/14 06:17:43;;;;;;;3.13;2.50;;;19.90;48.40;;;;;;4963298;28;91691;-58
2024/01/14 06:20:09;;;;;;;3.63;3.25;;;19.90;48.20;;;;;;4962431;28;94187;-58
2024/01/14 06:22:35;;;;;;;4.43;3.47;;;19.90;48.20;;;;;;4961750;28;93523;-58
2024/01/14 06:25:00;;;;;;;3.50;3.20;;;19.80;48.30;;;;;;4947805;28;93387;-56
2024/01/14 06:27:26;;;;;;;3.90;3.50;;;19.80;48.10;;;;;;4947465;28;92403;-57
2024/01/14 06:29:52;;;;;;;3.35;3.05;;;19.80;48.00;;;;;;4944870;28;93715;-57
2024/01/14 06:32:18;;;;;;;3.50;3.20;;;19.80;48.20;;;;;;4948883;28;93158;-56
2024/01/14 06:34:44;;;;;;;3.35;2.97;;;19.80;48.20;;;;;;4946598;28;92574;-58
2024/01/14 06:37:10;;;;;;;3.72;3.20;;;19.80;48.30;;;;;;4947544;28;92444;-58
2024/01/14 06:39:36;;;;;;;3.63;3.00;;;19.80;48.00;;;;;;4949240;28;93263;-57
2024/01/14 06:42:02;;;;;;;3.17;2.60;;;19.80;48.30;;;;;;4954901;28;92910;-56
2024/01/14 06:44:27;;;;;;;3.22;2.90;;;19.80;48.20;;;;;;4962233;28;92837;-56
2024/01/14 06:46:54;;;;;;;3.13;2.83;;;19.80;48.20;;;;;;4957244;28;92917;-56
2024/01/14 06:49:20;;;;;;;3.70;3.40;;;19.80;48.20;;;;;;4967657;28;96300;-58
2024/01/14 06:51:46;;;;;;;3.53;3.22;;;19.80;48.20;;;;;;4947671;28;93779;-57
2024/01/14 06:54:12;;;;;;;2.90;2.60;;;19.80;48.30;;;;;;4947133;28;92263;-58
2024/01/14 06:56:45;;;;;;;3.05;2.72;;;19.70;48.10;;;;;;4947324;28;92386;-54
2024/01/14 06:59:14;;;;;;;3.20;2.88;;;19.70;47.90;;;;;;4946885;28;93209;-56
2024/01/14 07:01:40;;;;;;;;;;;19.70;48.10;;;;;;4946892;28;93078;-55
2024/01/14 07:04:07;;;;;;;3.42;2.72;;;19.70;48.10;;;;;;4936973;28;92680;-57
2024/01/14 07:06:32;;;;;;;4.25;3.50;;;19.70;48.10;;;;;;4949954;28;91982;-55
2024/01/14 07:08:59;;;;;;;3.40;2.92;;;19.70;48.00;;;;;;4947439;28;94126;-58
2024/01/14 07:11:24;;;;;;;3.65;3.20;;;19.70;48.00;;;;;;4949280;28;93331;-57
2024/01/14 07:13:50;;;;;;;3.25;2.95;;;19.70;48.00;;;;;;4952675;28;94324;-58
2024/01/14 07:16:16;;;;;;;3.38;3.00;;;19.70;48.10;;;;;;4949164;28;93027;-58
2024/01/14 07:18:42;;;;;;;3.67;3.38;;;19.70;48.10;;;;;;4950966;28;93293;-60
2024/01/14 07:21:10;;;;;;;3.33;3.03;;;19.70;48.10;;;;;;4952144;28;93294;-57
2024/01/14 07:23:37;;;;;;;3.17;2.88;;;19.60;48.00;;;;;;4946461;28;92318;-57
2024/01/14 07:26:05;;;;;;;2.85;2.55;;;19.60;48.00;;;;;;4945588;28;92705;-56
2024/01/14 07:28:31;;;;;;;3.40;3.08;;;19.60;48.00;;;;;;4960710;28;93580;-58
2024/01/14 07:30:57;;;;;;;4.10;2.95;;;19.60;47.80;;;;;;4927304;28;93255;-57
2024/01/14 07:33:22;;;;;;;3.72;3.10;;;19.60;47.90;;;;;;4947429;28;92358;-55
2024/01/14 07:35:49;;;;;;;3.60;3.10;;;19.60;48.00;;;;;;4951891;28;92456;-58
2024/01/14 07:38:15;;;;;;;4.10;3.50;;;19.60;48.10;;;;;;4961900;28;94855;-58
2024/01/14 07:40:43;;;;;;;5.55;3.83;;;19.60;48.00;;;;;;4961333;28;93444;-58
2024/01/14 07:43:09;;;;;;;6.20;3.55;;;19.70;47.80;;;;;;4950170;28;93174;-56
2024/01/14 07:45:36;;;;;;;6.13;3.42;;;19.70;48.10;;;;;;4952465;28;92637;-56
2024/01/14 07:48:02;;;;;;;4.32;3.05;;;19.70;48.30;;;;;;4951687;28;93487;-57
2024/01/14 07:50:28;;;;;;;4.43;3.22;;;19.70;48.10;;;;;;4947437;28;92992;-55
2024/01/14 07:52:53;;;;;;;5.03;3.30;;;19.80;48.40;;;;;;4952083;28;92127;-58
2024/01/14 07:55:21;;;;;;;4.30;3.13;;;19.80;49.20;;;;;;4946959;28;91766;-55
2024/01/14 07:57:48;;;;;;;4.70;2.83;;;20.00;49.20;;;;;;4943978;28;93205;-59
2024/01/14 08:00:14;;;;;;;5.18;3.05;;;20.10;49.30;;;;;;4946076;28;93124;-57
2024/01/14 08:02:40;;;;;;;5.50;2.70;;;20.30;49.30;;;;;;4946925;28;94085;-56
2024/01/14 08:05:06;;;;;;;5.65;3.10;;;20.40;49.10;;;;;;4946278;28;93514;-57
2024/01/14 08:07:32;;;;;;;3.53;2.90;;;20.50;48.80;;;;;;4927419;28;93896;-59
2024/01/14 08:09:59;;;;;;;3.08;2.83;;;20.60;48.70;;;;;;4942910;28;93201;-58
2024/01/14 08:12:24;;;;;;;4.68;3.13;;;20.70;48.80;;;;;;4952377;28;92530;-59
2024/01/14 08:14:50;;;;;;;2.60;2.40;;;20.80;48.60;;;;;;4953661;28;94494;-58
2024/01/14 08:17:17;;;;;;;3.15;2.35;;;20.80;48.50;;;;;;4948991;28;94177;-58
2024/01/14 08:19:43;;;;;;;4.05;3.08;;;20.80;48.40;;;;;;4948054;28;92312;-58
2024/01/14 08:22:10;;;;;;;4.35;2.70;;;20.90;48.30;;;;;;4964070;28;93112;-59
2024/01/14 08:24:36;;;;;;;3.30;2.72;;;20.90;48.30;;;;;;4950648;28;92566;-58
2024/01/14 08:27:02;;;;;;;3.17;2.83;;;20.90;48.20;;;;;;4949680;28;94595;-59
2024/01/14 08:29:28;;;;;;;3.30;2.80;;;21.00;48.20;;;;;;4949975;28;93123;-59
2024/01/14 08:31:54;;;;;;;2.83;2.63;;;21.10;48.10;;;;;;4964374;28;92661;-59
2024/01/14 08:34:20;;;;;;;7.45;2.63;;;21.10;47.90;;;;;;4963815;28;92270;-57
2024/01/14 08:36:46;;;;;;;7.57;3.28;;;21.20;47.70;;;;;;4941835;28;94004;-57
2024/01/14 08:39:11;;;;;;;7.85;3.22;;;21.20;47.30;;;;;;4942732;28;93472;-56
2024/01/14 08:41:37;;;;;;;6.13;2.80;;;21.20;47.40;;;;;;4955671;28;92877;-58
2024/01/14 08:44:06;;;;;;;4.47;2.67;;;21.30;47.30;;;;;;4955973;28;92293;-55
2024/01/14 08:46:34;;;;;;;6.13;2.97;;;21.30;47.40;;;;;;4943648;28;93196;-58
2024/01/14 08:49:00;;;;;;;7.22;2.95;;;21.40;47.30;;;;;;4949266;28;93719;-57
2024/01/14 08:51:27;;;;;;;7.35;3.38;;;21.50;47.30;;;;;;4947825;28;94140;-55
2024/01/14 08:53:58;;;;;;;8.40;3.45;;;21.50;47.00;;;;;;4945366;28;92529;-57
2024/01/14 08:56:24;;;;;;;6.50;3.20;;;21.50;47.00;;;;;;4948231;28;93228;-56
2024/01/14 08:58:49;;;;;;;7.57;3.53;;;21.60;47.00;;;;;;4947273;28;92877;-57
2024/01/14 09:01:17;;;;;;;11.00;3.33;;;21.60;47.00;;;;;;4948200;28;92582;-58
2024/01/14 09:03:43;;;;;;;7.03;3.67;;;21.60;47.00;;;;;;4953195;28;92394;-58
2024/01/14 09:06:09;;;;;;;9.88;3.83;;;21.70;47.00;;;;;;4948859;28;95779;-58
2024/01/14 09:08:37;;;;;;;11.13;4.05;;;21.70;47.20;;;;;;4951886;28;92902;-58
2024/01/14 09:11:03;;;;;;;15.07;5.00;;;21.70;46.90;;;;;;4962703;28;92498;-57
2024/01/14 09:13:31;;;;;;;26.42;6.60;;;21.80;46.60;;;;;;4950033;28;92654;-56
2024/01/14 09:15:57;;;;;;;26.67;8.77;;;21.80;46.20;;;;;;4946486;28;94953;-56
2024/01/14 09:18:22;;;;;;;28.30;9.00;;;21.80;45.30;;;;;;4950636;28;93451;-58
2024/01/14 09:20:49;;;;;;;24.08;8.13;;;21.90;44.60;;;;;;4949416;28;92403;-57
2024/01/14 09:23:16;;;;;;;23.38;9.20;;;21.90;44.30;;;;;;4962934;28;92858;-58
2024/01/14 09:25:41;;;;;;;20.58;8.57;;;22.00;43.30;;;;;;4945671;28;93144;-57
2024/01/14 09:28:07;;;;;;;22.77;9.38;;;22.10;43.00;;;;;;4948881;28;92456;-56
2024/01/14 09:30:33;;;;;;;25.83;9.75;;;22.10;42.20;;;;;;4948005;28;92593;-56
2024/01/14 09:33:00;;;;;;;24.85;8.18;;;22.10;41.60;;;;;;4954957;28;92418;-58
2024/01/14 09:35:26;;;;;;;23.10;8.32;;;22.20;41.70;;;;;;4949842;28;93359;-57
2024/01/14 09:37:52;;;;;;;22.92;8.38;;;22.20;41.80;;;;;;4926823;28;93431;-57
2024/01/14 09:40:18;;;;;;;23.90;7.93;;;22.10;42.30;;;;;;4962296;28;93917;-58
2024/01/14 09:42:45;;;;;;;20.30;7.80;;;22.10;42.10;;;;;;4954282;28;92383;-58
2024/01/14 09:45:11;;;;;;;23.75;10.07;;;22.00;42.30;;;;;;4949833;28;93830;-58
2024/01/14 09:47:37;;;;;;;22.15;8.75;;;22.00;41.30;;;;;;4946094;28;93469;-58
2024/01/14 09:50:04;;;;;;;23.25;9.10;;;21.90;39.90;;;;;;4962969;28;92041;-57
2024/01/14 09:52:32;;;;;;;18.80;8.48;;;21.80;39.50;;;;;;4948330;28;92068;-57
2024/01/14 09:54:58;;;;;;;20.65;9.90;;;21.80;39.40;;;;;;4946022;28;95211;-57
2024/01/14 09:57:25;;;;;;;24.70;10.27;;;21.80;39.60;;;;;;4947570;28;94416;-58
2024/01/14 09:59:51;;;;;;;17.40;7.80;;;21.70;39.90;;;;;;4952620;28;92264;-58
2024/01/14 10:02:17;;;;;;;16.48;8.60;;;21.70;40.30;;;;;;4946425;28;93482;-58
2024/01/14 10:04:43;;;;;;;18.75;8.23;;;21.70;41.20;;;;;;4950141;28;96449;-58
2024/01/14 10:07:10;;;;;;;15.68;8.88;;;21.70;41.20;;;;;;4949529;28;94752;-58
2024/01/14 10:09:38;;;;;;;18.52;8.57;;;21.70;41.30;;;;;;4946158;28;92457;-58
2024/01/14 10:12:04;;;;;;;16.50;7.63;;;21.70;41.30;;;;;;4948214;28;92159;-58
2024/01/14 10:14:30;;;;;;;13.23;8.48;;;21.70;41.40;;;;;;4958654;28;92668;-58
2024/01/14 10:16:57;;;;;;;13.68;7.60;;;21.70;41.20;;;;;;4954024;28;92842;-58
2024/01/14 10:19:23;;;;;;;17.75;8.65;;;21.70;41.00;;;;;;4964936;28;92866;-57
2024/01/14 10:21:52;;;;;;;14.85;7.68;;;21.70;40.70;;;;;;4949806;28;91959;-58
2024/01/14 10:24:18;;;;;;;12.43;6.68;;;21.70;40.60;;;;;;4946134;28;94002;-56
2024/01/14 10:26:44;;;;;;;12.82;7.10;;;21.70;40.70;;;;;;4947861;28;95356;-57
2024/01/14 10:29:09;;;;;;;16.35;8.52;;;21.70;40.90;;;;;;4962461;28;94027;-58
2024/01/14 10:31:36;;;;;;;16.35;7.60;;;21.70;40.10;;;;;;4947595;28;92391;-57
2024/01/14 10:34:03;;;;;;;11.20;6.68;;;21.60;39.60;;;;;;4961158;28;93469;-57
2024/01/14 10:36:32;;;;;;;12.68;7.13;;;21.60;39.70;;;;;;4946367;28;92750;-58
2024/01/14 10:38:59;;;;;;;17.08;8.65;;;21.60;39.30;;;;;;4961554;28;92071;-59
2024/01/14 10:41:25;;;;;;;22.95;10.30;;;21.60;38.90;;;;;;4946772;28;92686;-57
2024/01/14 10:43:52;;;;;;;17.60;9.15;;;21.50;38.70;;;;;;4950432;28;93891;-58
2024/01/14 10:46:18;;;;;;;25.67;9.52;;;21.50;39.60;;;;;;4943446;28;93417;-57
2024/01/14 10:48:49;;;;;;;17.75;8.48;;;21.50;39.10;;;;;;4949420;28;92869;-54
2024/01/14 10:51:20;;;;;;;19.17;8.70;;;21.50;39.30;;;;;;4950283;28;92217;-56
2024/01/14 10:54:07;;;;;;;21.25;8.13;;;21.50;39.60;;;;;;4947029;28;94818;-58
2024/01/14 10:56:40;;;;;;;17.40;8.65;;;21.40;39.20;;;;;;4947693;28;94234;-58
2024/01/14 10:59:09;;;;;;;19.13;7.93;;;21.50;40.60;;;;;;4928414;28;93199;-58
2024/01/14 11:01:43;;;;;;;16.13;6.57;;;21.50;41.20;;;;;;4941453;28;93909;-57
2024/01/14 11:04:10;;;;;;;13.40;6.38;;;21.50;41.90;;;;;;4947149;28;92693;-58
2024/01/14 11:06:36;;;;;;;17.25;6.63;;;21.50;42.50;;;;;;4945823;28;93109;-58
2024/01/14 11:09:03;;;;;;;14.05;7.78;;;21.60;43.00;;;;;;4945007;28;92448;-58
2024/01/14 11:11:37;;;;;;;15.88;6.07;;;21.60;43.30;;;;;;4951976;28;91980;-57
2024/01/14 11:14:13;;;;;;;18.42;7.95;;;21.60;43.60;;;;;;4958106;28;98304;-56
2024/01/14 11:16:56;;;;;;;12.30;6.07;;;21.60;43.80;;;;;;4965384;28;92786;-58
2024/01/14 11:19:25;;;;;;;8.50;5.63;;;21.60;44.20;;;;;;4945696;28;93899;-58
2024/01/14 11:22:13;;;;;;;13.55;7.20;;;21.60;44.60;;;;;;4961582;28;92783;-57
2024/01/14 11:24:39;;;;;;;11.95;6.10;;;21.60;44.70;;;;;;4960496;28;93956;-57
2024/01/14 11:27:07;;;;;;;9.70;5.47;;;21.60;44.50;;;;;;4946881;28;94442;-57
2024/01/14 11:29:42;;;;;;;15.32;6.80;;;21.50;44.60;;;;;;4962420;28;92440;-56
2024/01/14 11:32:08;;;;;;;15.50;6.57;;;21.50;43.90;;;;;;4961717;28;92592;-56
2024/01/14 11:34:51;;;;;;;12.52;6.15;;;21.50;44.10;;;;;;4946979;28;93473;-56
2024/01/14 11:37:29;;;;;;;13.00;5.82;;;21.50;44.70;;;;;;4963457;28;93836;-58
2024/01/14 11:40:11;;;;;;;12.10;6.05;;;21.50;44.30;;;;;;4946416;28;92602;-57
2024/01/14 11:42:46;;;;;;;11.15;6.57;;;21.50;44.80;;;;;;4943537;28;92908;-57
2024/01/14 11:45:32;;;;;;;22.65;6.55;;;21.40;45.00;;;;;;4949047;28;95026;-58
2024/01/14 11:47:58;;;;;;;11.40;6.07;;;21.50;45.20;;;;;;4952185;28;94146;-58
2024/01/14 11:50:27;;;;;;;9.77;5.25;;;21.50;45.30;;;;;;4950061;28;93158;-57
2024/01/14 11:52:55;;;;;;;8.52;4.65;;;21.50;45.40;;;;;;4964754;28;92818;-58
2024/01/14 11:55:26;;;;;;;13.10;4.93;;;21.50;45.40;;;;;;4950107;28;93937;-59
2024/01/14 11:57:53;;;;;;;12.77;4.85;;;21.60;45.70;;;;;;4952366;28;92944;-58
2024/01/14 12:00:25;;;;;;;11.88;4.72;;;21.60;45.30;;;;;;4951558;28;92077;-56
2024/01/14 12:03:18;;;;;;;9.98;4.80;;;21.60;45.50;;;;;;4957185;28;91309;-59
2024/01/14 12:05:44;;;;;;;8.65;5.10;;;21.60;45.80;;;;;;4947077;28;93868;-59
2024/01/14 12:08:11;;;;;;;12.90;4.85;;;21.60;46.00;;;;;;4949185;28;93341;-60
2024/01/14 12:10:37;;;;;;;10.20;4.65;;;21.60;46.70;;;;;;4955669;28;93250;-64
2024/01/14 12:13:04;;;;;;;7.80;4.18;;;21.60;46.10;;;;;;4966658;28;92869;-64
2024/01/14 12:15:31;;;;;;;8.40;4.75;;;21.60;46.10;;;;;;4947325;28;93243;-64
2024/01/14 12:17:58;;;;;;;9.52;5.05;;;21.60;46.10;;;;;;4947363;28;93122;-65
2024/01/14 12:20:25;;;;;;;9.50;4.78;;;21.60;45.90;;;;;;4957792;28;91963;-66
2024/01/14 12:23:02;;;;;;;9.48;5.18;;;21.70;46.10;;;;;;4951211;28;92603;-65
2024/01/14 12:25:29;;;;;;;8.30;5.22;;;21.70;46.00;;;;;;4953708;28;93647;-59
2024/01/14 12:27:54;;;;;;;9.65;4.88;;;21.70;45.90;;;;;;4954624;28;93190;-59
2024/01/14 12:30:25;;;;;;;11.57;4.82;;;21.70;45.90;;;;;;4965408;28;92482;-59
2024/01/14 12:32:50;;;;;;;10.25;4.55;;;21.70;46.40;;;;;;4955237;28;92230;-58
2024/01/14 12:35:16;;;;;;;11.02;5.43;;;21.70;46.80;;;;;;4949212;28;93732;-59
2024/01/14 12:37:42;;;;;;;12.02;4.07;;;21.70;46.20;;;;;;4952455;28;94685;-59
2024/01/14 12:40:08;;;;;;;9.73;5.30;;;21.60;46.40;;;;;;4955764;28;92628;-59
2024/01/14 12:42:33;;;;;;;10.55;4.75;;;21.60;46.40;;;;;;4952761;28;92617;-59
2024/01/14 12:45:03;;;;;;;9.57;4.40;;;21.60;46.50;;;;;;4947351;28;93923;-59
2024/01/14 12:47:29;;;;;;;8.40;3.63;;;21.60;46.40;;;;;;4960505;28;93383;-59
2024/01/14 12:49:56;;;;;;;8.23;3.95;;;21.70;46.40;;;;;;4948345;28;92981;-59